Weather at Paris-Orly Airport

Public forecast

Using degrees Celsius for public forecast. Weather courtesy of forecast.io.

Current aviation weather report (METAR) for Paris-Orly Airport

Report is more than 6 hours old.

2022/11/14 15:30 (retrieved 2 years ago)

LFPO 141530Z 21008KT 9999 BKN010 SCT160 13/11 Q1010 TEMPO BKN012

Aviation forecast (TAF) for Paris-Orly Airport

Forecast is more than 12 hours old.

2023/02/22 18:47 (retrieved 1 year ago)

TAF LFPO 221700Z 2218/2324 26005KT 9999 SCT010 BKN020 BECMG 2218/2219 BKN011 TEMPO 2219/2309 BKN009 PROB40 TEMPO 2219/2221 4000 -RA BECMG 2315/2317 05010KT TEMPO 2320/2322 BKN010